sensor_id;sensor_type;location;lat;lon;timestamp;P1;durP1;ratioP1;P2;durP2;ratioP2
46551;SDS011;32278;51.810;4.712;2023-04-15T00:00:51;10.45;;;5.00;;
46551;SDS011;32278;51.810;4.712;2023-04-15T00:03:17;12.00;;;3.67;;
46551;SDS011;32278;51.810;4.712;2023-04-15T00:05:43;10.32;;;3.83;;
46551;SDS011;32278;51.810;4.712;2023-04-15T00:08:09;9.27;;;3.78;;
46551;SDS011;32278;51.810;4.712;2023-04-15T00:10:36;7.38;;;3.33;;
46551;SDS011;32278;51.810;4.712;2023-04-15T00:13:02;13.63;;;3.80;;
46551;SDS011;32278;51.810;4.712;2023-04-15T00:15:28;7.25;;;3.15;;
46551;SDS011;32278;51.810;4.712;2023-04-15T00:17:54;8.68;;;3.90;;
46551;SDS011;32278;51.810;4.712;2023-04-15T00:20:20;7.70;;;3.60;;
46551;SDS011;32278;51.810;4.712;2023-04-15T00:22:46;8.35;;;3.85;;
46551;SDS011;32278;51.810;4.712;2023-04-15T00:25:12;12.18;;;4.07;;
46551;SDS011;32278;51.810;4.712;2023-04-15T00:27:39;7.97;;;3.80;;
46551;SDS011;32278;51.810;4.712;2023-04-15T00:30:05;9.77;;;3.65;;
46551;SDS011;32278;51.810;4.712;2023-04-15T00:32:31;13.77;;;3.95;;
46551;SDS011;32278;51.810;4.712;2023-04-15T00:34:58;7.30;;;3.63;;
46551;SDS011;32278;51.810;4.712;2023-04-15T00:37:24;8.23;;;3.78;;
46551;SDS011;32278;51.810;4.712;2023-04-15T00:39:50;8.60;;;4.20;;
46551;SDS011;32278;51.810;4.712;2023-04-15T00:42:16;8.05;;;4.00;;
46551;SDS011;32278;51.810;4.712;2023-04-15T00:44:42;10.20;;;4.38;;
46551;SDS011;32278;51.810;4.712;2023-04-15T00:47:08;13.82;;;4.47;;
46551;SDS011;32278;51.810;4.712;2023-04-15T00:49:35;7.20;;;3.33;;
46551;SDS011;32278;51.810;4.712;2023-04-15T00:52:01;12.60;;;4.45;;
46551;SDS011;32278;51.810;4.712;2023-04-15T00:54:27;9.32;;;4.10;;
46551;SDS011;32278;51.810;4.712;2023-04-15T00:56:53;11.95;;;4.20;;
46551;SDS011;32278;51.810;4.712;2023-04-15T00:59:20;9.13;;;4.57;;
46551;SDS011;32278;51.810;4.712;2023-04-15T01:01:46;9.30;;;4.43;;
46551;SDS011;32278;51.810;4.712;2023-04-15T01:04:12;11.52;;;4.32;;
46551;SDS011;32278;51.810;4.712;2023-04-15T01:06:39;11.02;;;3.88;;
46551;SDS011;32278;51.810;4.712;2023-04-15T01:09:05;10.40;;;4.65;;
46551;SDS011;32278;51.810;4.712;2023-04-15T01:11:31;6.75;;;4.18;;
46551;SDS011;32278;51.810;4.712;2023-04-15T01:13:58;16.00;;;5.00;;
46551;SDS011;32278;51.810;4.712;2023-04-15T01:16:25;12.25;;;5.35;;
46551;SDS011;32278;51.810;4.712;2023-04-15T01:18:52;11.85;;;4.13;;
46551;SDS011;32278;51.810;4.712;2023-04-15T01:21:18;11.65;;;4.95;;
46551;SDS011;32278;51.810;4.712;2023-04-15T01:23:45;13.07;;;5.38;;
46551;SDS011;32278;51.810;4.712;2023-04-15T01:26:12;11.80;;;5.32;;
46551;SDS011;32278;51.810;4.712;2023-04-15T01:28:38;10.48;;;4.75;;
46551;SDS011;32278;51.810;4.712;2023-04-15T01:31:05;13.05;;;5.38;;
46551;SDS011;32278;51.810;4.712;2023-04-15T01:33:32;14.52;;;4.80;;
46551;SDS011;32278;51.810;4.712;2023-04-15T01:35:57;11.70;;;5.18;;
46551;SDS011;32278;51.810;4.712;2023-04-15T01:38:25;11.50;;;4.93;;
46551;SDS011;32278;51.810;4.712;2023-04-15T01:40:52;12.27;;;4.65;;
46551;SDS011;32278;51.810;4.712;2023-04-15T01:43:18;10.10;;;4.68;;
46551;SDS011;32278;51.810;4.712;2023-04-15T01:45:44;10.88;;;5.03;;
46551;SDS011;32278;51.810;4.712;2023-04-15T01:48:10;8.88;;;4.55;;
46551;SDS011;32278;51.810;4.712;2023-04-15T01:50:37;9.45;;;4.90;;
46551;SDS011;32278;51.810;4.712;2023-04-15T01:53:03;9.43;;;5.07;;
46551;SDS011;32278;51.810;4.712;2023-04-15T01:55:29;9.55;;;4.90;;
46551;SDS011;32278;51.810;4.712;2023-04-15T01:57:55;11.98;;;5.13;;
46551;SDS011;32278;51.810;4.712;2023-04-15T02:00:21;10.77;;;5.65;;
46551;SDS011;32278;51.810;4.712;2023-04-15T02:02:48;10.18;;;5.30;;
46551;SDS011;32278;51.810;4.712;2023-04-15T02:05:14;10.20;;;4.63;;
46551;SDS011;32278;51.810;4.712;2023-04-15T02:07:41;10.05;;;5.45;;
46551;SDS011;32278;51.810;4.712;2023-04-15T02:10:07;8.35;;;4.63;;
46551;SDS011;32278;51.810;4.712;2023-04-15T02:12:34;15.10;;;5.85;;
46551;SDS011;32278;51.810;4.712;2023-04-15T02:15:00;10.13;;;4.88;;
46551;SDS011;32278;51.810;4.712;2023-04-15T02:17:26;8.70;;;5.35;;
46551;SDS011;32278;51.810;4.712;2023-04-15T02:19:54;13.00;;;5.43;;
46551;SDS011;32278;51.810;4.712;2023-04-15T02:22:20;8.65;;;4.60;;
46551;SDS011;32278;51.810;4.712;2023-04-15T02:24:46;7.95;;;5.40;;
46551;SDS011;32278;51.810;4.712;2023-04-15T02:27:16;11.48;;;6.28;;
46551;SDS011;32278;51.810;4.712;2023-04-15T02:29:43;11.63;;;5.53;;
46551;SDS011;32278;51.810;4.712;2023-04-15T02:32:09;10.45;;;5.75;;
46551;SDS011;32278;51.810;4.712;2023-04-15T02:34:36;8.40;;;4.82;;
46551;SDS011;32278;51.810;4.712;2023-04-15T02:37:05;12.00;;;5.60;;
46551;SDS011;32278;51.810;4.712;2023-04-15T02:39:31;9.00;;;5.45;;
46551;SDS011;32278;51.810;4.712;2023-04-15T02:41:57;15.48;;;6.28;;
46551;SDS011;32278;51.810;4.712;2023-04-15T02:44:24;9.60;;;5.93;;
46551;SDS011;32278;51.810;4.712;2023-04-15T02:46:51;7.80;;;5.60;;
46551;SDS011;32278;51.810;4.712;2023-04-15T02:49:18;9.98;;;5.57;;
46551;SDS011;32278;51.810;4.712;2023-04-15T02:51:44;13.35;;;5.82;;
46551;SDS011;32278;51.810;4.712;2023-04-15T02:54:17;12.20;;;6.32;;
46551;SDS011;32278;51.810;4.712;2023-04-15T02:56:43;11.23;;;6.78;;
46551;SDS011;32278;51.810;4.712;2023-04-15T02:59:09;13.05;;;6.15;;
46551;SDS011;32278;51.810;4.712;2023-04-15T03:01:36;10.38;;;5.78;;
46551;SDS011;32278;51.810;4.712;2023-04-15T03:04:02;11.18;;;5.28;;
46551;SDS011;32278;51.810;4.712;2023-04-15T03:06:28;9.40;;;4.70;;
46551;SDS011;32278;51.810;4.712;2023-04-15T03:08:54;13.55;;;6.20;;
46551;SDS011;32278;51.810;4.712;2023-04-15T03:11:21;9.10;;;6.28;;
46551;SDS011;32278;51.810;4.712;2023-04-15T03:13:47;9.32;;;5.60;;
46551;SDS011;32278;51.810;4.712;2023-04-15T03:16:13;11.38;;;5.18;;
46551;SDS011;32278;51.810;4.712;2023-04-15T03:18:40;14.98;;;6.38;;
46551;SDS011;32278;51.810;4.712;2023-04-15T03:21:06;10.25;;;5.07;;
46551;SDS011;32278;51.810;4.712;2023-04-15T03:23:32;11.02;;;6.00;;
46551;SDS011;32278;51.810;4.712;2023-04-15T03:26:00;7.53;;;5.30;;
46551;SDS011;32278;51.810;4.712;2023-04-15T03:28:26;10.25;;;5.70;;
46551;SDS011;32278;51.810;4.712;2023-04-15T03:30:53;16.70;;;6.40;;
46551;SDS011;32278;51.810;4.712;2023-04-15T03:33:19;10.23;;;6.22;;
46551;SDS011;32278;51.810;4.712;2023-04-15T03:35:45;15.57;;;6.80;;
46551;SDS011;32278;51.810;4.712;2023-04-15T03:38:11;11.07;;;6.25;;
46551;SDS011;32278;51.810;4.712;2023-04-15T03:40:39;12.73;;;6.40;;
46551;SDS011;32278;51.810;4.712;2023-04-15T03:43:05;11.85;;;6.72;;
46551;SDS011;32278;51.810;4.712;2023-04-15T03:45:31;15.45;;;5.95;;
46551;SDS011;32278;51.810;4.712;2023-04-15T03:47:57;12.88;;;6.97;;
46551;SDS011;32278;51.810;4.712;2023-04-15T03:50:23;15.45;;;6.63;;
46551;SDS011;32278;51.810;4.712;2023-04-15T03:52:49;13.18;;;6.82;;
46551;SDS011;32278;51.810;4.712;2023-04-15T03:55:15;15.52;;;6.35;;
46551;SDS011;32278;51.810;4.712;2023-04-15T03:57:41;12.18;;;6.45;;
46551;SDS011;32278;51.810;4.712;2023-04-15T04:00:07;11.35;;;6.22;;
46551;SDS011;32278;51.810;4.712;2023-04-15T04:02:36;12.75;;;5.82;;
46551;SDS011;32278;51.810;4.712;2023-04-15T04:05:02;12.48;;;6.50;;
46551;SDS011;32278;51.810;4.712;2023-04-15T04:07:28;11.88;;;6.55;;
46551;SDS011;32278;51.810;4.712;2023-04-15T04:09:56;13.27;;;6.13;;
46551;SDS011;32278;51.810;4.712;2023-04-15T04:12:22;11.02;;;5.88;;
46551;SDS011;32278;51.810;4.712;2023-04-15T04:14:48;10.23;;;6.15;;
46551;SDS011;32278;51.810;4.712;2023-04-15T04:17:14;11.85;;;6.40;;
46551;SDS011;32278;51.810;4.712;2023-04-15T04:19:40;9.52;;;5.60;;
46551;SDS011;32278;51.810;4.712;2023-04-15T04:22:06;10.77;;;5.65;;
46551;SDS011;32278;51.810;4.712;2023-04-15T04:24:32;12.32;;;5.97;;
46551;SDS011;32278;51.810;4.712;2023-04-15T04:26:58;13.13;;;6.70;;
46551;SDS011;32278;51.810;4.712;2023-04-15T04:29:24;10.07;;;5.78;;
46551;SDS011;32278;51.810;4.712;2023-04-15T04:31:50;11.70;;;6.47;;
46551;SDS011;32278;51.810;4.712;2023-04-15T04:34:16;12.52;;;5.10;;
46551;SDS011;32278;51.810;4.712;2023-04-15T04:36:42;11.95;;;6.80;;
46551;SDS011;32278;51.810;4.712;2023-04-15T04:39:08;10.85;;;5.97;;
46551;SDS011;32278;51.810;4.712;2023-04-15T04:41:34;9.32;;;6.20;;
46551;SDS011;32278;51.810;4.712;2023-04-15T04:44:00;14.00;;;6.40;;
46551;SDS011;32278;51.810;4.712;2023-04-15T04:46:27;14.60;;;6.60;;
46551;SDS011;32278;51.810;4.712;2023-04-15T04:48:53;11.77;;;5.82;;
46551;SDS011;32278;51.810;4.712;2023-04-15T04:51:19;10.50;;;5.60;;
46551;SDS011;32278;51.810;4.712;2023-04-15T04:53:45;15.40;;;6.70;;
46551;SDS011;32278;51.810;4.712;2023-04-15T04:56:11;10.57;;;5.68;;
46551;SDS011;32278;51.810;4.712;2023-04-15T04:58:37;9.10;;;5.82;;
46551;SDS011;32278;51.810;4.712;2023-04-15T05:01:03;9.23;;;6.22;;
46551;SDS011;32278;51.810;4.712;2023-04-15T05:03:29;12.00;;;6.80;;
46551;SDS011;32278;51.810;4.712;2023-04-15T05:05:55;10.98;;;6.82;;
46551;SDS011;32278;51.810;4.712;2023-04-15T05:08:21;9.63;;;6.00;;
46551;SDS011;32278;51.810;4.712;2023-04-15T05:10:47;8.88;;;6.45;;
46551;SDS011;32278;51.810;4.712;2023-04-15T05:13:13;11.25;;;6.25;;
46551;SDS011;32278;51.810;4.712;2023-04-15T05:15:39;11.90;;;5.97;;
46551;SDS011;32278;51.810;4.712;2023-04-15T05:18:07;14.15;;;6.82;;
46551;SDS011;32278;51.810;4.712;2023-04-15T05:20:33;11.45;;;6.95;;
46551;SDS011;32278;51.810;4.712;2023-04-15T05:22:59;9.98;;;6.57;;
46551;SDS011;32278;51.810;4.712;2023-04-15T05:25:25;13.30;;;6.78;;
46551;SDS011;32278;51.810;4.712;2023-04-15T05:27:51;12.80;;;6.43;;
46551;SDS011;32278;51.810;4.712;2023-04-15T05:30:17;11.55;;;6.65;;
46551;SDS011;32278;51.810;4.712;2023-04-15T05:32:42;14.52;;;7.38;;
46551;SDS011;32278;51.810;4.712;2023-04-15T05:35:08;15.43;;;6.68;;
46551;SDS011;32278;51.810;4.712;2023-04-15T05:37:34;12.35;;;6.50;;
46551;SDS011;32278;51.810;4.712;2023-04-15T05:40:00;11.75;;;6.65;;
46551;SDS011;32278;51.810;4.712;2023-04-15T05:42:28;10.50;;;6.45;;
46551;SDS011;32278;51.810;4.712;2023-04-15T05:44:54;10.52;;;6.35;;
46551;SDS011;32278;51.810;4.712;2023-04-15T05:47:20;14.63;;;6.38;;
46551;SDS011;32278;51.810;4.712;2023-04-15T05:49:46;10.13;;;6.82;;
46551;SDS011;32278;51.810;4.712;2023-04-15T05:52:12;11.32;;;6.25;;
46551;SDS011;32278;51.810;4.712;2023-04-15T05:54:38;10.98;;;6.85;;
46551;SDS011;32278;51.810;4.712;2023-04-15T05:57:04;11.40;;;6.88;;
46551;SDS011;32278;51.810;4.712;2023-04-15T05:59:30;13.73;;;7.32;;
46551;SDS011;32278;51.810;4.712;2023-04-15T06:01:56;16.40;;;7.75;;
46551;SDS011;32278;51.810;4.712;2023-04-15T06:04:22;15.38;;;6.57;;
46551;SDS011;32278;51.810;4.712;2023-04-15T06:06:48;11.52;;;6.95;;
46551;SDS011;32278;51.810;4.712;2023-04-15T06:09:14;12.70;;;7.18;;
46551;SDS011;32278;51.810;4.712;2023-04-15T06:11:40;13.73;;;7.07;;
46551;SDS011;32278;51.810;4.712;2023-04-15T06:14:06;10.02;;;6.55;;
46551;SDS011;32278;51.810;4.712;2023-04-15T06:16:32;14.00;;;7.15;;
46551;SDS011;32278;51.810;4.712;2023-04-15T06:19:00;11.98;;;6.53;;
46551;SDS011;32278;51.810;4.712;2023-04-15T06:21:26;13.05;;;6.57;;
46551;SDS011;32278;51.810;4.712;2023-04-15T06:23:52;11.88;;;7.05;;
46551;SDS011;32278;51.810;4.712;2023-04-15T06:26:18;13.07;;;7.07;;
46551;SDS011;32278;51.810;4.712;2023-04-15T06:28:44;13.00;;;6.85;;
46551;SDS011;32278;51.810;4.712;2023-04-15T06:31:10;13.13;;;6.72;;
46551;SDS011;32278;51.810;4.712;2023-04-15T06:33:36;11.05;;;6.45;;
46551;SDS011;32278;51.810;4.712;2023-04-15T06:36:02;14.43;;;6.88;;
46551;SDS011;32278;51.810;4.712;2023-04-15T06:38:28;11.35;;;6.32;;
46551;SDS011;32278;51.810;4.712;2023-04-15T06:40:54;8.77;;;5.90;;
46551;SDS011;32278;51.810;4.712;2023-04-15T06:43:20;13.18;;;6.38;;
46551;SDS011;32278;51.810;4.712;2023-04-15T06:45:46;16.52;;;7.18;;
46551;SDS011;32278;51.810;4.712;2023-04-15T06:48:12;15.38;;;6.57;;
46551;SDS011;32278;51.810;4.712;2023-04-15T06:50:38;11.32;;;7.38;;
46551;SDS011;32278;51.810;4.712;2023-04-15T06:53:04;14.43;;;7.68;;
46551;SDS011;32278;51.810;4.712;2023-04-15T06:55:30;14.23;;;9.10;;
46551;SDS011;32278;51.810;4.712;2023-04-15T06:57:57;12.50;;;7.13;;
46551;SDS011;32278;51.810;4.712;2023-04-15T07:00:23;13.32;;;7.22;;
46551;SDS011;32278;51.810;4.712;2023-04-15T07:02:50;12.13;;;7.30;;
46551;SDS011;32278;51.810;4.712;2023-04-15T07:05:16;16.33;;;7.88;;
46551;SDS011;32278;51.810;4.712;2023-04-15T07:07:43;12.63;;;6.90;;
46551;SDS011;32278;51.810;4.712;2023-04-15T07:10:09;12.73;;;6.68;;
46551;SDS011;32278;51.810;4.712;2023-04-15T07:12:36;12.20;;;6.80;;
46551;SDS011;32278;51.810;4.712;2023-04-15T07:15:02;14.68;;;6.80;;
46551;SDS011;32278;51.810;4.712;2023-04-15T07:17:28;9.68;;;6.43;;
46551;SDS011;32278;51.810;4.712;2023-04-15T07:19:54;15.77;;;6.50;;
46551;SDS011;32278;51.810;4.712;2023-04-15T07:22:20;11.95;;;7.15;;
46551;SDS011;32278;51.810;4.712;2023-04-15T07:24:46;18.10;;;6.72;;
46551;SDS011;32278;51.810;4.712;2023-04-15T07:27:12;11.15;;;6.45;;
46551;SDS011;32278;51.810;4.712;2023-04-15T07:29:38;10.82;;;6.53;;
46551;SDS011;32278;51.810;4.712;2023-04-15T07:32:04;11.48;;;6.97;;
46551;SDS011;32278;51.810;4.712;2023-04-15T07:34:30;10.23;;;6.57;;
46551;SDS011;32278;51.810;4.712;2023-04-15T07:36:56;11.57;;;7.25;;
46551;SDS011;32278;51.810;4.712;2023-04-15T07:39:22;9.15;;;6.30;;
46551;SDS011;32278;51.810;4.712;2023-04-15T07:41:48;12.25;;;7.45;;
46551;SDS011;32278;51.810;4.712;2023-04-15T07:44:14;13.63;;;7.15;;
46551;SDS011;32278;51.810;4.712;2023-04-15T07:46:40;14.95;;;7.97;;
46551;SDS011;32278;51.810;4.712;2023-04-15T07:49:06;11.00;;;6.78;;
46551;SDS011;32278;51.810;4.712;2023-04-15T07:51:32;12.80;;;6.95;;
46551;SDS011;32278;51.810;4.712;2023-04-15T07:53:58;11.50;;;6.85;;
46551;SDS011;32278;51.810;4.712;2023-04-15T07:56:24;14.05;;;7.30;;
46551;SDS011;32278;51.810;4.712;2023-04-15T07:58:50;12.15;;;6.47;;
46551;SDS011;32278;51.810;4.712;2023-04-15T08:01:16;18.40;;;7.85;;
46551;SDS011;32278;51.810;4.712;2023-04-15T08:03:42;9.23;;;6.45;;
46551;SDS011;32278;51.810;4.712;2023-04-15T08:06:08;11.48;;;6.72;;
46551;SDS011;32278;51.810;4.712;2023-04-15T08:08:34;9.82;;;6.65;;
46551;SDS011;32278;51.810;4.712;2023-04-15T08:11:00;11.48;;;6.45;;
46551;SDS011;32278;51.810;4.712;2023-04-15T08:13:26;9.55;;;6.70;;
46551;SDS011;32278;51.810;4.712;2023-04-15T08:16:12;12.05;;;7.20;;
46551;SDS011;32278;51.810;4.712;2023-04-15T08:18:38;10.18;;;6.40;;
46551;SDS011;32278;51.810;4.712;2023-04-15T08:21:04;10.43;;;5.07;;
46551;SDS011;32278;51.810;4.712;2023-04-15T08:23:30;8.50;;;5.18;;
46551;SDS011;32278;51.810;4.712;2023-04-15T08:25:57;6.85;;;4.55;;
46551;SDS011;32278;51.810;4.712;2023-04-15T08:28:23;6.97;;;4.82;;
46551;SDS011;32278;51.810;4.712;2023-04-15T08:30:51;9.23;;;5.50;;
46551;SDS011;32278;51.810;4.712;2023-04-15T08:33:17;10.05;;;5.88;;
46551;SDS011;32278;51.810;4.712;2023-04-15T08:35:43;9.88;;;5.38;;
46551;SDS011;32278;51.810;4.712;2023-04-15T08:38:09;9.93;;;5.88;;
46551;SDS011;32278;51.810;4.712;2023-04-15T08:40:42;10.05;;;5.60;;
46551;SDS011;32278;51.810;4.712;2023-04-15T08:43:09;11.02;;;6.05;;
46551;SDS011;32278;51.810;4.712;2023-04-15T08:45:37;17.63;;;7.18;;
46551;SDS011;32278;51.810;4.712;2023-04-15T08:48:04;10.65;;;6.13;;
46551;SDS011;32278;51.810;4.712;2023-04-15T08:50:31;13.27;;;6.65;;
46551;SDS011;32278;51.810;4.712;2023-04-15T08:53:00;12.50;;;7.03;;
46551;SDS011;32278;51.810;4.712;2023-04-15T08:55:28;9.98;;;5.97;;
46551;SDS011;32278;51.810;4.712;2023-04-15T08:57:54;12.85;;;6.72;;
46551;SDS011;32278;51.810;4.712;2023-04-15T09:00:21;14.18;;;7.10;;
46551;SDS011;32278;51.810;4.712;2023-04-15T09:02:47;11.63;;;7.03;;
46551;SDS011;32278;51.810;4.712;2023-04-15T09:05:13;12.38;;;7.13;;
46551;SDS011;32278;51.810;4.712;2023-04-15T09:07:40;10.30;;;6.53;;
46551;SDS011;32278;51.810;4.712;2023-04-15T09:10:06;12.63;;;6.68;;
46551;SDS011;32278;51.810;4.712;2023-04-15T09:12:33;11.68;;;6.25;;
46551;SDS011;32278;51.810;4.712;2023-04-15T09:15:00;13.32;;;6.20;;
46551;SDS011;32278;51.810;4.712;2023-04-15T09:17:26;11.02;;;5.80;;
46551;SDS011;32278;51.810;4.712;2023-04-15T09:20:12;8.80;;;4.95;;
46551;SDS011;32278;51.810;4.712;2023-04-15T09:22:39;9.57;;;5.70;;
46551;SDS011;32278;51.810;4.712;2023-04-15T09:25:26;8.02;;;4.60;;
46551;SDS011;32278;51.810;4.712;2023-04-15T09:27:53;9.77;;;5.20;;
46551;SDS011;32278;51.810;4.712;2023-04-15T09:30:19;13.43;;;5.65;;
46551;SDS011;32278;51.810;4.712;2023-04-15T09:32:52;11.25;;;5.75;;
46551;SDS011;32278;51.810;4.712;2023-04-15T09:35:19;6.97;;;3.83;;
46551;SDS011;32278;51.810;4.712;2023-04-15T09:37:45;8.40;;;4.53;;
46551;SDS011;32278;51.810;4.712;2023-04-15T09:40:11;6.38;;;4.32;;
46551;SDS011;32278;51.810;4.712;2023-04-15T09:42:53;8.65;;;4.55;;
46551;SDS011;32278;51.810;4.712;2023-04-15T09:45:20;10.07;;;4.13;;
46551;SDS011;32278;51.810;4.712;2023-04-15T09:47:46;11.75;;;3.40;;
46551;SDS011;32278;51.810;4.712;2023-04-15T09:50:12;6.40;;;2.92;;
46551;SDS011;32278;51.810;4.712;2023-04-15T09:52:42;11.73;;;3.35;;
46551;SDS011;32278;51.810;4.712;2023-04-15T09:55:08;4.90;;;2.97;;
46551;SDS011;32278;51.810;4.712;2023-04-15T09:57:35;5.50;;;3.17;;
46551;SDS011;32278;51.810;4.712;2023-04-15T10:00:04;4.38;;;3.20;;
46551;SDS011;32278;51.810;4.712;2023-04-15T10:02:35;5.63;;;3.38;;
46551;SDS011;32278;51.810;4.712;2023-04-15T10:05:01;7.80;;;2.63;;
46551;SDS011;32278;51.810;4.712;2023-04-15T10:07:27;4.55;;;3.13;;
46551;SDS011;32278;51.810;4.712;2023-04-15T10:09:54;4.18;;;2.80;;
46551;SDS011;32278;51.810;4.712;2023-04-15T10:12:21;6.47;;;4.00;;
46551;SDS011;32278;51.810;4.712;2023-04-15T10:14:47;7.88;;;3.75;;
46551;SDS011;32278;51.810;4.712;2023-04-15T10:17:15;4.10;;;3.08;;
46551;SDS011;32278;51.810;4.712;2023-04-15T10:19:42;5.53;;;2.83;;
46551;SDS011;32278;51.810;4.712;2023-04-15T10:22:08;5.55;;;3.20;;
46551;SDS011;32278;51.810;4.712;2023-04-15T10:24:34;5.93;;;3.17;;
46551;SDS011;32278;51.810;4.712;2023-04-15T10:27:04;8.27;;;3.70;;
46551;SDS011;32278;51.810;4.712;2023-04-15T10:29:30;7.07;;;4.47;;
46551;SDS011;32278;51.810;4.712;2023-04-15T10:31:57;6.43;;;3.65;;
46551;SDS011;32278;51.810;4.712;2023-04-15T10:34:24;5.25;;;3.50;;
46551;SDS011;32278;51.810;4.712;2023-04-15T10:36:50;5.68;;;3.90;;
46551;SDS011;32278;51.810;4.712;2023-04-15T10:42:14;4.80;;;2.00;;
46551;SDS011;32278;51.810;4.712;2023-04-15T10:44:41;4.60;;;2.00;;
46551;SDS011;32278;51.810;4.712;2023-04-15T10:47:11;3.83;;;2.00;;
46551;SDS011;32278;51.810;4.712;2023-04-15T10:52:29;4.70;;;3.03;;
46551;SDS011;32278;51.810;4.712;2023-04-15T10:55:30;5.47;;;3.10;;
46551;SDS011;32278;51.810;4.712;2023-04-15T10:57:50;5.97;;;3.65;;
46551;SDS011;32278;51.810;4.712;2023-04-15T11:00:17;6.93;;;3.78;;
46551;SDS011;32278;51.810;4.712;2023-04-15T11:05:10;5.68;;;2.90;;
46551;SDS011;32278;51.810;4.712;2023-04-15T11:07:37;6.20;;;3.08;;
46551;SDS011;32278;51.810;4.712;2023-04-15T11:10:49;3.20;;;2.67;;
46551;SDS011;32278;51.810;4.712;2023-04-15T11:13:00;2.75;;;2.42;;
46551;SDS011;32278;51.810;4.712;2023-04-15T11:15:31;6.32;;;2.28;;
46551;SDS011;32278;51.810;4.712;2023-04-15T11:17:58;4.88;;;2.00;;
46551;SDS011;32278;51.810;4.712;2023-04-15T11:20:24;2.97;;;2.05;;
46551;SDS011;32278;51.810;4.712;2023-04-15T11:22:51;4.18;;;1.90;;
46551;SDS011;32278;51.810;4.712;2023-04-15T11:25:25;3.00;;;2.00;;
46551;SDS011;32278;51.810;4.712;2023-04-15T11:27:51;5.80;;;2.55;;
46551;SDS011;32278;51.810;4.712;2023-04-15T11:30:22;2.97;;;2.25;;
46551;SDS011;32278;51.810;4.712;2023-04-15T11:32:49;4.70;;;2.03;;
46551;SDS011;32278;51.810;4.712;2023-04-15T11:35:15;2.92;;;2.22;;
46551;SDS011;32278;51.810;4.712;2023-04-15T11:37:42;5.70;;;2.40;;
46551;SDS011;32278;51.810;4.712;2023-04-15T11:40:08;4.25;;;2.30;;
46551;SDS011;32278;51.810;4.712;2023-04-15T11:42:34;5.53;;;2.58;;
46551;SDS011;32278;51.810;4.712;2023-04-15T11:45:07;3.53;;;2.45;;
46551;SDS011;32278;51.810;4.712;2023-04-15T11:47:34;5.25;;;2.75;;
46551;SDS011;32278;51.810;4.712;2023-04-15T11:52:40;4.63;;;2.33;;
46551;SDS011;32278;51.810;4.712;2023-04-15T11:55:06;3.05;;;2.35;;
46551;SDS011;32278;51.810;4.712;2023-04-15T11:57:33;6.05;;;3.05;;
46551;SDS011;32278;51.810;4.712;2023-04-15T11:59:59;4.32;;;3.10;;
46551;SDS011;32278;51.810;4.712;2023-04-15T12:02:35;4.68;;;2.90;;
46551;SDS011;32278;51.810;4.712;2023-04-15T12:05:04;6.53;;;3.25;;
46551;SDS011;32278;51.810;4.712;2023-04-15T12:07:30;5.07;;;3.53;;
46551;SDS011;32278;51.810;4.712;2023-04-15T12:09:57;7.03;;;4.10;;
46551;SDS011;32278;51.810;4.712;2023-04-15T12:12:27;6.35;;;3.40;;
46551;SDS011;32278;51.810;4.712;2023-04-15T12:14:53;5.72;;;3.60;;
46551;SDS011;32278;51.810;4.712;2023-04-15T12:17:22;6.28;;;3.58;;
46551;SDS011;32278;51.810;4.712;2023-04-15T12:19:54;5.95;;;3.70;;
46551;SDS011;32278;51.810;4.712;2023-04-15T12:22:20;6.25;;;3.40;;
46551;SDS011;32278;51.810;4.712;2023-04-15T12:24:47;6.22;;;3.63;;
46551;SDS011;32278;51.810;4.712;2023-04-15T12:27:18;7.55;;;3.80;;
46551;SDS011;32278;51.810;4.712;2023-04-15T12:29:45;7.55;;;3.65;;
46551;SDS011;32278;51.810;4.712;2023-04-15T12:32:11;5.18;;;3.33;;
46551;SDS011;32278;51.810;4.712;2023-04-15T12:34:38;6.05;;;3.80;;
46551;SDS011;32278;51.810;4.712;2023-04-15T12:37:05;4.55;;;2.95;;
46551;SDS011;32278;51.810;4.712;2023-04-15T12:39:34;6.30;;;2.78;;
46551;SDS011;32278;51.810;4.712;2023-04-15T12:42:00;5.13;;;2.63;;
46551;SDS011;32278;51.810;4.712;2023-04-15T12:44:26;5.50;;;2.83;;
46551;SDS011;32278;51.810;4.712;2023-04-15T12:46:52;4.60;;;2.95;;
46551;SDS011;32278;51.810;4.712;2023-04-15T12:49:22;9.00;;;3.05;;
46551;SDS011;32278;51.810;4.712;2023-04-15T12:51:48;4.57;;;2.70;;
46551;SDS011;32278;51.810;4.712;2023-04-15T12:54:15;4.65;;;2.72;;
46551;SDS011;32278;51.810;4.712;2023-04-15T12:56:47;6.35;;;2.80;;
46551;SDS011;32278;51.810;4.712;2023-04-15T12:59:14;5.15;;;2.35;;
46551;SDS011;32278;51.810;4.712;2023-04-15T13:01:40;3.97;;;2.88;;
46551;SDS011;32278;51.810;4.712;2023-04-15T13:04:07;7.25;;;3.13;;
46551;SDS011;32278;51.810;4.712;2023-04-15T13:06:33;6.80;;;2.13;;
46551;SDS011;32278;51.810;4.712;2023-04-15T13:08:59;2.88;;;1.85;;
46551;SDS011;32278;51.810;4.712;2023-04-15T13:11:25;3.95;;;1.58;;
46551;SDS011;32278;51.810;4.712;2023-04-15T13:13:53;4.55;;;1.50;;
46551;SDS011;32278;51.810;4.712;2023-04-15T13:16:19;5.38;;;1.80;;
46551;SDS011;32278;51.810;4.712;2023-04-15T13:18:47;3.65;;;1.63;;
46551;SDS011;32278;51.810;4.712;2023-04-15T13:21:13;3.10;;;2.00;;
46551;SDS011;32278;51.810;4.712;2023-04-15T13:23:42;2.03;;;1.17;;
46551;SDS011;32278;51.810;4.712;2023-04-15T13:26:08;2.00;;;1.33;;
46551;SDS011;32278;51.810;4.712;2023-04-15T13:28:34;3.72;;;1.70;;
46551;SDS011;32278;51.810;4.712;2023-04-15T13:31:01;2.90;;;1.60;;
46551;SDS011;32278;51.810;4.712;2023-04-15T13:33:27;4.05;;;1.60;;
46551;SDS011;32278;51.810;4.712;2023-04-15T13:35:53;3.13;;;1.40;;
46551;SDS011;32278;51.810;4.712;2023-04-15T13:38:19;7.60;;;2.17;;
46551;SDS011;32278;51.810;4.712;2023-04-15T13:40:45;2.33;;;1.77;;
46551;SDS011;32278;51.810;4.712;2023-04-15T13:43:11;2.47;;;1.35;;
46551;SDS011;32278;51.810;4.712;2023-04-15T13:45:37;3.97;;;1.40;;
46551;SDS011;32278;51.810;4.712;2023-04-15T13:48:03;2.20;;;1.30;;
46551;SDS011;32278;51.810;4.712;2023-04-15T13:50:29;3.72;;;1.27;;
46551;SDS011;32278;51.810;4.712;2023-04-15T13:52:55;3.05;;;1.75;;
46551;SDS011;32278;51.810;4.712;2023-04-15T13:55:21;3.15;;;1.40;;
46551;SDS011;32278;51.810;4.712;2023-04-15T13:57:47;2.30;;;1.52;;
46551;SDS011;32278;51.810;4.712;2023-04-15T14:00:14;4.90;;;1.92;;
46551;SDS011;32278;51.810;4.712;2023-04-15T14:02:40;4.43;;;1.75;;
46551;SDS011;32278;51.810;4.712;2023-04-15T14:05:07;2.08;;;1.40;;
46551;SDS011;32278;51.810;4.712;2023-04-15T14:07:33;2.63;;;1.73;;
46551;SDS011;32278;51.810;4.712;2023-04-15T14:09:59;1.77;;;1.40;;
46551;SDS011;32278;51.810;4.712;2023-04-15T14:12:25;6.85;;;1.60;;
46551;SDS011;32278;51.810;4.712;2023-04-15T14:14:51;1.90;;;1.70;;
46551;SDS011;32278;51.810;4.712;2023-04-15T14:17:17;2.42;;;2.03;;
46551;SDS011;32278;51.810;4.712;2023-04-15T14:19:43;1.67;;;1.15;;
46551;SDS011;32278;51.810;4.712;2023-04-15T14:22:09;1.27;;;1.05;;
46551;SDS011;32278;51.810;4.712;2023-04-15T14:24:35;3.72;;;1.25;;
46551;SDS011;32278;51.810;4.712;2023-04-15T14:27:01;3.47;;;1.25;;
46551;SDS011;32278;51.810;4.712;2023-04-15T14:29:27;3.05;;;1.20;;
46551;SDS011;32278;51.810;4.712;2023-04-15T14:31:53;1.65;;;1.20;;
46551;SDS011;32278;51.810;4.712;2023-04-15T14:34:21;2.45;;;1.25;;
46551;SDS011;32278;51.810;4.712;2023-04-15T14:36:49;3.70;;;1.35;;
46551;SDS011;32278;51.810;4.712;2023-04-15T14:39:16;2.50;;;1.20;;
46551;SDS011;32278;51.810;4.712;2023-04-15T14:41:41;2.72;;;1.27;;
46551;SDS011;32278;51.810;4.712;2023-04-15T14:44:07;3.30;;;0.98;;
46551;SDS011;32278;51.810;4.712;2023-04-15T14:46:35;5.43;;;1.20;;
46551;SDS011;32278;51.810;4.712;2023-04-15T14:49:01;5.15;;;1.23;;